sensor_id;sensor_type;location;lat;lon;timestamp;P1;durP1;ratioP1;P2;durP2;ratioP2
261;SDS011;114;48.260;10.988;2022-07-29T00:00:42;4.50;;;2.97;;
261;SDS011;114;48.260;10.988;2022-07-29T00:03:11;3.10;;;2.90;;
261;SDS011;114;48.260;10.988;2022-07-29T00:05:38;4.17;;;2.90;;
261;SDS011;114;48.260;10.988;2022-07-29T00:08:05;3.00;;;2.70;;
261;SDS011;114;48.260;10.988;2022-07-29T00:10:31;2.97;;;2.77;;
261;SDS011;114;48.260;10.988;2022-07-29T00:12:57;3.30;;;3.03;;
261;SDS011;114;48.260;10.988;2022-07-29T00:15:24;2.70;;;2.60;;
261;SDS011;114;48.260;10.988;2022-07-29T00:17:50;4.40;;;2.30;;
261;SDS011;114;48.260;10.988;2022-07-29T00:20:16;4.00;;;2.73;;
261;SDS011;114;48.260;10.988;2022-07-29T00:22:42;4.90;;;3.10;;
261;SDS011;114;48.260;10.988;2022-07-29T00:25:08;4.43;;;3.13;;
261;SDS011;114;48.260;10.988;2022-07-29T00:27:35;3.10;;;2.90;;
261;SDS011;114;48.260;10.988;2022-07-29T00:30:02;4.20;;;3.13;;
261;SDS011;114;48.260;10.988;2022-07-29T00:32:28;3.80;;;2.93;;
261;SDS011;114;48.260;10.988;2022-07-29T00:34:54;4.13;;;3.20;;
261;SDS011;114;48.260;10.988;2022-07-29T00:37:39;4.90;;;3.70;;
261;SDS011;114;48.260;10.988;2022-07-29T00:40:05;4.47;;;3.83;;
261;SDS011;114;48.260;10.988;2022-07-29T00:42:45;4.53;;;3.97;;
261;SDS011;114;48.260;10.988;2022-07-29T00:45:13;8.97;;;3.77;;
261;SDS011;114;48.260;10.988;2022-07-29T00:47:40;7.73;;;3.93;;
261;SDS011;114;48.260;10.988;2022-07-29T00:50:07;6.47;;;4.47;;
261;SDS011;114;48.260;10.988;2022-07-29T00:52:37;6.07;;;4.47;;
261;SDS011;114;48.260;10.988;2022-07-29T00:55:05;8.83;;;4.90;;
261;SDS011;114;48.260;10.988;2022-07-29T00:57:33;6.87;;;5.50;;
261;SDS011;114;48.260;10.988;2022-07-29T01:00:00;6.30;;;5.70;;
261;SDS011;114;48.260;10.988;2022-07-29T01:02:26;10.47;;;5.87;;
261;SDS011;114;48.260;10.988;2022-07-29T01:04:52;9.47;;;5.40;;
261;SDS011;114;48.260;10.988;2022-07-29T01:07:19;11.60;;;5.80;;
261;SDS011;114;48.260;10.988;2022-07-29T01:09:45;6.40;;;5.37;;
261;SDS011;114;48.260;10.988;2022-07-29T01:12:16;14.23;;;5.83;;
261;SDS011;114;48.260;10.988;2022-07-29T01:14:44;6.03;;;5.10;;
261;SDS011;114;48.260;10.988;2022-07-29T01:17:14;7.03;;;5.87;;
261;SDS011;114;48.260;10.988;2022-07-29T01:22:37;8.10;;;5.73;;
261;SDS011;114;48.260;10.988;2022-07-29T01:34:11;8.60;;;5.87;;
261;SDS011;114;48.260;10.988;2022-07-29T01:37:06;6.80;;;6.10;;
261;SDS011;114;48.260;10.988;2022-07-29T01:39:44;7.40;;;5.97;;
261;SDS011;114;48.260;10.988;2022-07-29T01:44:57;6.07;;;5.47;;
261;SDS011;114;48.260;10.988;2022-07-29T01:48:13;7.93;;;5.60;;
261;SDS011;114;48.260;10.988;2022-07-29T01:50:38;6.50;;;5.70;;
261;SDS011;114;48.260;10.988;2022-07-29T01:53:11;8.13;;;5.27;;
261;SDS011;114;48.260;10.988;2022-07-29T01:55:42;5.87;;;5.40;;
261;SDS011;114;48.260;10.988;2022-07-29T01:58:11;10.43;;;5.30;;
261;SDS011;114;48.260;10.988;2022-07-29T02:00:38;5.60;;;5.10;;
261;SDS011;114;48.260;10.988;2022-07-29T02:03:07;5.77;;;5.23;;
261;SDS011;114;48.260;10.988;2022-07-29T02:05:36;5.73;;;5.23;;
261;SDS011;114;48.260;10.988;2022-07-29T02:08:04;7.70;;;5.30;;
261;SDS011;114;48.260;10.988;2022-07-29T02:10:32;10.53;;;5.90;;
261;SDS011;114;48.260;10.988;2022-07-29T02:13:02;7.87;;;5.60;;
261;SDS011;114;48.260;10.988;2022-07-29T02:15:30;8.80;;;6.97;;
261;SDS011;114;48.260;10.988;2022-07-29T02:17:58;10.83;;;6.47;;
261;SDS011;114;48.260;10.988;2022-07-29T02:20:33;6.60;;;5.67;;
261;SDS011;114;48.260;10.988;2022-07-29T02:23:02;25.40;;;5.70;;
261;SDS011;114;48.260;10.988;2022-07-29T02:25:31;7.87;;;5.43;;
261;SDS011;114;48.260;10.988;2022-07-29T02:27:57;7.00;;;5.40;;
261;SDS011;114;48.260;10.988;2022-07-29T02:30:26;6.73;;;5.60;;
261;SDS011;114;48.260;10.988;2022-07-29T02:32:53;5.70;;;5.10;;
261;SDS011;114;48.260;10.988;2022-07-29T02:35:20;11.90;;;5.37;;
261;SDS011;114;48.260;10.988;2022-07-29T02:37:46;9.77;;;5.00;;
261;SDS011;114;48.260;10.988;2022-07-29T02:40:33;9.17;;;5.33;;
261;SDS011;114;48.260;10.988;2022-07-29T02:43:02;11.80;;;4.90;;
261;SDS011;114;48.260;10.988;2022-07-29T02:45:29;8.27;;;5.30;;
261;SDS011;114;48.260;10.988;2022-07-29T02:47:55;5.53;;;4.63;;
261;SDS011;114;48.260;10.988;2022-07-29T02:50:29;6.80;;;4.47;;
261;SDS011;114;48.260;10.988;2022-07-29T02:53:00;5.43;;;4.43;;
261;SDS011;114;48.260;10.988;2022-07-29T02:58:27;5.77;;;5.27;;
261;SDS011;114;48.260;10.988;2022-07-29T03:00:57;12.87;;;5.27;;
261;SDS011;114;48.260;10.988;2022-07-29T03:03:27;5.23;;;4.70;;
261;SDS011;114;48.260;10.988;2022-07-29T03:06:03;4.87;;;4.60;;
261;SDS011;114;48.260;10.988;2022-07-29T03:08:31;6.30;;;4.73;;
261;SDS011;114;48.260;10.988;2022-07-29T03:10:59;8.23;;;4.50;;
261;SDS011;114;48.260;10.988;2022-07-29T03:13:26;7.47;;;5.10;;
261;SDS011;114;48.260;10.988;2022-07-29T03:15:52;5.80;;;5.30;;
261;SDS011;114;48.260;10.988;2022-07-29T03:18:19;6.00;;;5.40;;
261;SDS011;114;48.260;10.988;2022-07-29T03:20:46;7.30;;;5.60;;
261;SDS011;114;48.260;10.988;2022-07-29T03:23:12;6.80;;;4.90;;
261;SDS011;114;48.260;10.988;2022-07-29T03:25:49;5.93;;;5.17;;
261;SDS011;114;48.260;10.988;2022-07-29T03:28:15;4.97;;;4.60;;
261;SDS011;114;48.260;10.988;2022-07-29T03:30:41;10.10;;;4.60;;
261;SDS011;114;48.260;10.988;2022-07-29T03:33:06;4.90;;;4.50;;
261;SDS011;114;48.260;10.988;2022-07-29T03:35:32;5.20;;;4.63;;
261;SDS011;114;48.260;10.988;2022-07-29T03:37:58;6.07;;;4.43;;
261;SDS011;114;48.260;10.988;2022-07-29T03:40:26;8.97;;;4.00;;
261;SDS011;114;48.260;10.988;2022-07-29T03:42:58;8.73;;;4.60;;
261;SDS011;114;48.260;10.988;2022-07-29T03:45:25;4.67;;;3.97;;
261;SDS011;114;48.260;10.988;2022-07-29T03:47:55;11.53;;;3.87;;
261;SDS011;114;48.260;10.988;2022-07-29T03:50:26;6.43;;;4.20;;
261;SDS011;114;48.260;10.988;2022-07-29T03:52:54;4.70;;;4.20;;
261;SDS011;114;48.260;10.988;2022-07-29T03:55:20;3.73;;;3.50;;
261;SDS011;114;48.260;10.988;2022-07-29T03:57:49;5.17;;;3.90;;
261;SDS011;114;48.260;10.988;2022-07-29T04:00:16;6.40;;;3.97;;
261;SDS011;114;48.260;10.988;2022-07-29T04:02:43;4.20;;;3.67;;
261;SDS011;114;48.260;10.988;2022-07-29T04:05:13;3.80;;;3.60;;
261;SDS011;114;48.260;10.988;2022-07-29T04:07:42;3.93;;;3.63;;
261;SDS011;114;48.260;10.988;2022-07-29T04:10:09;7.23;;;3.33;;
261;SDS011;114;48.260;10.988;2022-07-29T04:12:36;3.23;;;3.03;;
261;SDS011;114;48.260;10.988;2022-07-29T04:15:02;4.40;;;3.03;;
261;SDS011;114;48.260;10.988;2022-07-29T04:17:29;3.07;;;2.97;;
261;SDS011;114;48.260;10.988;2022-07-29T04:19:54;4.00;;;3.03;;
261;SDS011;114;48.260;10.988;2022-07-29T04:22:23;2.77;;;2.50;;
261;SDS011;114;48.260;10.988;2022-07-29T04:24:49;2.80;;;2.60;;
261;SDS011;114;48.260;10.988;2022-07-29T04:27:15;3.03;;;2.83;;
261;SDS011;114;48.260;10.988;2022-07-29T04:29:41;3.20;;;3.03;;
261;SDS011;114;48.260;10.988;2022-07-29T04:32:07;8.53;;;3.30;;
261;SDS011;114;48.260;10.988;2022-07-29T04:34:32;3.70;;;3.40;;
261;SDS011;114;48.260;10.988;2022-07-29T04:36:58;4.07;;;3.00;;
261;SDS011;114;48.260;10.988;2022-07-29T04:39:24;3.07;;;2.87;;
261;SDS011;114;48.260;10.988;2022-07-29T04:41:50;4.80;;;2.70;;
261;SDS011;114;48.260;10.988;2022-07-29T04:44:16;7.63;;;3.63;;
261;SDS011;114;48.260;10.988;2022-07-29T04:46:42;6.67;;;3.03;;
261;SDS011;114;48.260;10.988;2022-07-29T04:49:08;3.20;;;3.00;;
261;SDS011;114;48.260;10.988;2022-07-29T04:51:34;3.57;;;3.10;;
261;SDS011;114;48.260;10.988;2022-07-29T04:53:59;4.97;;;3.17;;
261;SDS011;114;48.260;10.988;2022-07-29T04:56:25;7.70;;;3.50;;
261;SDS011;114;48.260;10.988;2022-07-29T04:58:51;4.47;;;3.00;;
261;SDS011;114;48.260;10.988;2022-07-29T05:01:17;5.30;;;3.60;;
261;SDS011;114;48.260;10.988;2022-07-29T05:03:43;4.17;;;3.43;;
261;SDS011;114;48.260;10.988;2022-07-29T05:06:10;4.07;;;3.10;;
261;SDS011;114;48.260;10.988;2022-07-29T05:08:36;4.60;;;3.23;;
261;SDS011;114;48.260;10.988;2022-07-29T05:11:02;8.83;;;3.00;;
261;SDS011;114;48.260;10.988;2022-07-29T05:13:29;3.70;;;3.50;;
261;SDS011;114;48.260;10.988;2022-07-29T05:15:55;3.67;;;3.43;;
261;SDS011;114;48.260;10.988;2022-07-29T05:18:23;3.13;;;2.83;;
261;SDS011;114;48.260;10.988;2022-07-29T05:20:49;5.27;;;3.20;;
261;SDS011;114;48.260;10.988;2022-07-29T05:23:15;6.90;;;2.67;;
261;SDS011;114;48.260;10.988;2022-07-29T05:25:40;6.40;;;2.83;;
261;SDS011;114;48.260;10.988;2022-07-29T05:28:06;2.70;;;2.47;;
261;SDS011;114;48.260;10.988;2022-07-29T05:30:32;9.77;;;2.53;;
261;SDS011;114;48.260;10.988;2022-07-29T05:32:58;3.90;;;2.17;;
261;SDS011;114;48.260;10.988;2022-07-29T05:35:23;5.30;;;2.47;;
261;SDS011;114;48.260;10.988;2022-07-29T05:37:49;3.27;;;1.93;;
261;SDS011;114;48.260;10.988;2022-07-29T05:40:15;2.80;;;2.10;;
261;SDS011;114;48.260;10.988;2022-07-29T05:42:41;2.93;;;2.10;;
261;SDS011;114;48.260;10.988;2022-07-29T05:45:08;3.57;;;2.20;;
261;SDS011;114;48.260;10.988;2022-07-29T05:47:34;3.33;;;1.77;;
261;SDS011;114;48.260;10.988;2022-07-29T05:50:00;3.60;;;2.33;;
261;SDS011;114;48.260;10.988;2022-07-29T05:52:26;7.93;;;2.10;;
261;SDS011;114;48.260;10.988;2022-07-29T05:54:51;8.23;;;2.67;;
261;SDS011;114;48.260;10.988;2022-07-29T05:57:18;5.50;;;2.10;;
261;SDS011;114;48.260;10.988;2022-07-29T05:59:46;3.43;;;2.27;;
261;SDS011;114;48.260;10.988;2022-07-29T06:02:12;5.00;;;2.33;;
261;SDS011;114;48.260;10.988;2022-07-29T06:04:38;6.43;;;1.80;;
261;SDS011;114;48.260;10.988;2022-07-29T06:07:08;8.10;;;1.83;;
261;SDS011;114;48.260;10.988;2022-07-29T06:09:33;6.57;;;1.57;;
261;SDS011;114;48.260;10.988;2022-07-29T06:12:02;6.70;;;1.83;;
261;SDS011;114;48.260;10.988;2022-07-29T06:14:30;1.90;;;1.70;;
261;SDS011;114;48.260;10.988;2022-07-29T06:16:55;7.03;;;2.43;;
261;SDS011;114;48.260;10.988;2022-07-29T06:19:22;3.50;;;1.87;;
261;SDS011;114;48.260;10.988;2022-07-29T06:21:48;14.40;;;2.10;;
261;SDS011;114;48.260;10.988;2022-07-29T06:24:15;7.67;;;3.03;;
261;SDS011;114;48.260;10.988;2022-07-29T06:26:42;7.10;;;2.13;;
261;SDS011;114;48.260;10.988;2022-07-29T06:29:16;7.23;;;1.70;;
261;SDS011;114;48.260;10.988;2022-07-29T06:31:42;4.30;;;1.90;;
261;SDS011;114;48.260;10.988;2022-07-29T06:34:10;10.57;;;2.53;;
261;SDS011;114;48.260;10.988;2022-07-29T06:36:45;6.20;;;1.63;;
261;SDS011;114;48.260;10.988;2022-07-29T06:39:35;3.27;;;1.50;;
261;SDS011;114;48.260;10.988;2022-07-29T06:42:03;12.13;;;1.70;;
261;SDS011;114;48.260;10.988;2022-07-29T06:44:31;5.33;;;1.80;;
261;SDS011;114;48.260;10.988;2022-07-29T06:47:00;5.50;;;2.07;;
261;SDS011;114;48.260;10.988;2022-07-29T06:49:26;9.43;;;1.97;;
261;SDS011;114;48.260;10.988;2022-07-29T06:51:53;3.40;;;1.57;;
261;SDS011;114;48.260;10.988;2022-07-29T06:54:20;2.30;;;2.10;;
261;SDS011;114;48.260;10.988;2022-07-29T06:56:46;3.43;;;1.37;;
261;SDS011;114;48.260;10.988;2022-07-29T06:59:12;2.77;;;1.47;;
261;SDS011;114;48.260;10.988;2022-07-29T07:01:40;5.87;;;1.53;;
261;SDS011;114;48.260;10.988;2022-07-29T07:04:19;3.97;;;1.60;;
261;SDS011;114;48.260;10.988;2022-07-29T07:07:13;1.83;;;1.73;;
261;SDS011;114;48.260;10.988;2022-07-29T07:09:39;7.73;;;1.70;;
261;SDS011;114;48.260;10.988;2022-07-29T07:12:04;1.80;;;1.70;;
261;SDS011;114;48.260;10.988;2022-07-29T07:14:31;3.13;;;1.93;;
261;SDS011;114;48.260;10.988;2022-07-29T07:16:57;2.60;;;1.80;;
261;SDS011;114;48.260;10.988;2022-07-29T07:19:25;3.60;;;1.60;;
261;SDS011;114;48.260;10.988;2022-07-29T07:21:54;2.87;;;1.60;;
261;SDS011;114;48.260;10.988;2022-07-29T07:24:20;18.10;;;1.93;;
261;SDS011;114;48.260;10.988;2022-07-29T07:26:46;6.30;;;1.70;;
261;SDS011;114;48.260;10.988;2022-07-29T07:29:12;1.40;;;1.30;;
261;SDS011;114;48.260;10.988;2022-07-29T07:31:38;10.43;;;2.03;;
261;SDS011;114;48.260;10.988;2022-07-29T07:34:04;1.60;;;1.10;;
261;SDS011;114;48.260;10.988;2022-07-29T07:36:30;1.30;;;1.30;;
261;SDS011;114;48.260;10.988;2022-07-29T07:38:58;1.63;;;1.53;;
261;SDS011;114;48.260;10.988;2022-07-29T07:41:24;1.73;;;1.63;;
261;SDS011;114;48.260;10.988;2022-07-29T07:43:50;2.13;;;1.53;;
261;SDS011;114;48.260;10.988;2022-07-29T07:46:15;4.53;;;1.70;;
261;SDS011;114;48.260;10.988;2022-07-29T07:48:41;1.73;;;1.63;;
261;SDS011;114;48.260;10.988;2022-07-29T07:51:07;8.90;;;1.63;;
261;SDS011;114;48.260;10.988;2022-07-29T07:53:33;2.07;;;1.50;;
261;SDS011;114;48.260;10.988;2022-07-29T07:55:59;4.00;;;1.50;;
261;SDS011;114;48.260;10.988;2022-07-29T07:58:25;2.70;;;1.80;;
261;SDS011;114;48.260;10.988;2022-07-29T08:00:51;5.03;;;1.60;;
261;SDS011;114;48.260;10.988;2022-07-29T08:03:16;2.83;;;1.97;;
261;SDS011;114;48.260;10.988;2022-07-29T08:05:44;4.93;;;1.93;;
261;SDS011;114;48.260;10.988;2022-07-29T08:08:11;4.63;;;2.47;;
261;SDS011;114;48.260;10.988;2022-07-29T08:10:38;3.07;;;2.47;;
261;SDS011;114;48.260;10.988;2022-07-29T08:13:23;9.47;;;2.50;;
261;SDS011;114;48.260;10.988;2022-07-29T08:15:52;2.40;;;1.83;;
261;SDS011;114;48.260;10.988;2022-07-29T08:18:29;3.33;;;1.50;;
261;SDS011;114;48.260;10.988;2022-07-29T08:20:59;2.37;;;1.87;;
261;SDS011;114;48.260;10.988;2022-07-29T08:23:25;2.90;;;1.70;;
261;SDS011;114;48.260;10.988;2022-07-29T08:25:52;10.53;;;1.63;;
261;SDS011;114;48.260;10.988;2022-07-29T08:28:18;1.97;;;1.70;;
261;SDS011;114;48.260;10.988;2022-07-29T08:30:44;1.77;;;1.50;;
261;SDS011;114;48.260;10.988;2022-07-29T08:33:09;3.70;;;1.40;;
261;SDS011;114;48.260;10.988;2022-07-29T08:35:35;3.67;;;2.00;;
261;SDS011;114;48.260;10.988;2022-07-29T08:38:04;2.73;;;2.20;;
261;SDS011;114;48.260;10.988;2022-07-29T08:40:30;2.10;;;1.90;;
261;SDS011;114;48.260;10.988;2022-07-29T08:42:56;2.27;;;2.07;;
261;SDS011;114;48.260;10.988;2022-07-29T08:45:22;3.03;;;2.77;;
261;SDS011;114;48.260;10.988;2022-07-29T08:47:48;6.47;;;2.07;;
261;SDS011;114;48.260;10.988;2022-07-29T08:50:14;5.53;;;1.60;;
261;SDS011;114;48.260;10.988;2022-07-29T08:52:40;2.03;;;1.90;;
261;SDS011;114;48.260;10.988;2022-07-29T08:55:09;2.00;;;1.90;;
261;SDS011;114;48.260;10.988;2022-07-29T08:57:35;2.40;;;1.67;;
261;SDS011;114;48.260;10.988;2022-07-29T09:00:04;2.40;;;1.70;;
261;SDS011;114;48.260;10.988;2022-07-29T09:02:34;3.87;;;1.63;;
261;SDS011;114;48.260;10.988;2022-07-29T09:05:04;3.77;;;2.30;;
261;SDS011;114;48.260;10.988;2022-07-29T09:07:31;3.23;;;1.73;;
261;SDS011;114;48.260;10.988;2022-07-29T09:09:58;6.90;;;2.20;;
261;SDS011;114;48.260;10.988;2022-07-29T09:12:24;2.10;;;2.00;;
261;SDS011;114;48.260;10.988;2022-07-29T09:14:51;2.17;;;1.60;;
261;SDS011;114;48.260;10.988;2022-07-29T09:17:16;1.80;;;1.70;;
261;SDS011;114;48.260;10.988;2022-07-29T09:19:43;1.70;;;1.60;;
261;SDS011;114;48.260;10.988;2022-07-29T09:22:09;2.00;;;1.60;;
261;SDS011;114;48.260;10.988;2022-07-29T09:24:45;1.60;;;1.43;;
261;SDS011;114;48.260;10.988;2022-07-29T09:30:09;1.80;;;1.70;;
261;SDS011;114;48.260;10.988;2022-07-29T09:33:00;1.97;;;1.70;;
261;SDS011;114;48.260;10.988;2022-07-29T09:35:28;2.80;;;1.60;;
261;SDS011;114;48.260;10.988;2022-07-29T09:37:55;5.20;;;1.77;;
261;SDS011;114;48.260;10.988;2022-07-29T09:40:22;2.90;;;1.70;;
261;SDS011;114;48.260;10.988;2022-07-29T09:42:51;10.47;;;1.97;;
261;SDS011;114;48.260;10.988;2022-07-29T09:45:32;3.63;;;1.53;;
261;SDS011;114;48.260;10.988;2022-07-29T09:47:59;3.53;;;1.60;;
261;SDS011;114;48.260;10.988;2022-07-29T09:50:40;5.60;;;2.50;;
261;SDS011;114;48.260;10.988;2022-07-29T09:53:08;4.63;;;3.00;;
261;SDS011;114;48.260;10.988;2022-07-29T09:58:16;4.07;;;1.90;;
261;SDS011;114;48.260;10.988;2022-07-29T10:00:44;3.70;;;2.03;;
261;SDS011;114;48.260;10.988;2022-07-29T10:03:11;2.97;;;2.63;;
261;SDS011;114;48.260;10.988;2022-07-29T10:05:37;2.40;;;2.17;;
261;SDS011;114;48.260;10.988;2022-07-29T10:08:04;4.30;;;2.53;;
261;SDS011;114;48.260;10.988;2022-07-29T10:10:32;2.87;;;2.47;;
261;SDS011;114;48.260;10.988;2022-07-29T10:13:07;2.20;;;2.10;;
261;SDS011;114;48.260;10.988;2022-07-29T10:15:39;4.53;;;1.93;;
261;SDS011;114;48.260;10.988;2022-07-29T10:18:08;2.30;;;2.17;;
261;SDS011;114;48.260;10.988;2022-07-29T10:20:35;4.87;;;2.10;;
261;SDS011;114;48.260;10.988;2022-07-29T10:23:01;4.50;;;2.30;;
261;SDS011;114;48.260;10.988;2022-07-29T10:25:28;1.83;;;1.73;;
261;SDS011;114;48.260;10.988;2022-07-29T10:27:54;4.43;;;2.10;;
261;SDS011;114;48.260;10.988;2022-07-29T10:30:22;3.47;;;1.67;;
261;SDS011;114;48.260;10.988;2022-07-29T10:32:51;1.77;;;1.67;;
261;SDS011;114;48.260;10.988;2022-07-29T10:35:39;2.40;;;2.20;;
261;SDS011;114;48.260;10.988;2022-07-29T10:43:59;2.97;;;1.30;;
261;SDS011;114;48.260;10.988;2022-07-29T10:46:38;4.30;;;1.57;;
261;SDS011;114;48.260;10.988;2022-07-29T11:08:16;4.17;;;1.60;;
261;SDS011;114;48.260;10.988;2022-07-29T11:10:38;1.87;;;1.77;;
261;SDS011;114;48.260;10.988;2022-07-29T11:13:04;2.13;;;1.67;;
261;SDS011;114;48.260;10.988;2022-07-29T11:15:32;7.80;;;1.83;;
261;SDS011;114;48.260;10.988;2022-07-29T11:18:22;2.90;;;2.13;;
261;SDS011;114;48.260;10.988;2022-07-29T11:20:49;1.93;;;1.37;;
261;SDS011;114;48.260;10.988;2022-07-29T11:23:25;2.50;;;1.40;;
261;SDS011;114;48.260;10.988;2022-07-29T11:29:04;1.90;;;1.90;;
261;SDS011;114;48.260;10.988;2022-07-29T11:31:41;8.68;;;1.65;;
261;SDS011;114;48.260;10.988;2022-07-29T11:34:21;3.85;;;1.25;;
261;SDS011;114;48.260;10.988;2022-07-29T11:39:41;5.63;;;1.77;;
261;SDS011;114;48.260;10.988;2022-07-29T11:45:08;2.13;;;1.40;;
261;SDS011;114;48.260;10.988;2022-07-29T11:47:39;1.83;;;1.42;;
261;SDS011;114;48.260;10.988;2022-07-29T11:50:11;4.88;;;1.70;;
261;SDS011;114;48.260;10.988;2022-07-29T11:52:40;3.78;;;1.63;;
261;SDS011;114;48.260;10.988;2022-07-29T11:55:08;1.30;;;1.20;;
261;SDS011;114;48.260;10.988;2022-07-29T11:57:37;3.78;;;1.73;;
261;SDS011;114;48.260;10.988;2022-07-29T12:00:12;1.40;;;1.30;;
261;SDS011;114;48.260;10.988;2022-07-29T12:02:47;9.35;;;1.65;;
261;SDS011;114;48.260;10.988;2022-07-29T12:05:13;4.55;;;1.15;;
261;SDS011;114;48.260;10.988;2022-07-29T12:07:39;6.28;;;1.23;;
261;SDS011;114;48.260;10.988;2022-07-29T12:10:07;1.52;;;1.40;;
261;SDS011;114;48.260;10.988;2022-07-29T12:12:34;1.60;;;1.40;;
261;SDS011;114;48.260;10.988;2022-07-29T12:15:11;9.05;;;1.80;;
261;SDS011;114;48.260;10.988;2022-07-29T12:17:42;2.45;;;1.52;;
261;SDS011;114;48.260;10.988;2022-07-29T12:20:08;1.63;;;1.52;;
261;SDS011;114;48.260;10.988;2022-07-29T12:22:35;1.30;;;1.20;;
261;SDS011;114;48.260;10.988;2022-07-29T12:25:03;3.45;;;1.10;;
261;SDS011;114;48.260;10.988;2022-07-29T12:27:34;6.82;;;1.70;;
261;SDS011;114;48.260;10.988;2022-07-29T12:30:10;6.55;;;1.98;;
261;SDS011;114;48.260;10.988;2022-07-29T12:35:12;8.32;;;1.58;;
261;SDS011;114;48.260;10.988;2022-07-29T12:37:40;2.80;;;1.17;;
261;SDS011;114;48.260;10.988;2022-07-29T12:40:08;3.00;;;1.53;;
261;SDS011;114;48.260;10.988;2022-07-29T12:42:35;6.40;;;1.30;;
261;SDS011;114;48.260;10.988;2022-07-29T12:45:01;3.80;;;2.00;;
261;SDS011;114;48.260;10.988;2022-07-29T12:47:27;10.43;;;1.83;;
261;SDS011;114;48.260;10.988;2022-07-29T12:50:12;3.17;;;1.87;;
261;SDS011;114;48.260;10.988;2022-07-29T12:52:44;6.27;;;1.60;;
261;SDS011;114;48.260;10.988;2022-07-29T12:55:11;2.73;;;1.57;;
261;SDS011;114;48.260;10.988;2022-07-29T12:57:46;7.63;;;2.20;;
261;SDS011;114;48.260;10.988;2022-07-29T13:00:21;3.50;;;1.80;;
261;SDS011;114;48.260;10.988;2022-07-29T13:02:58;3.23;;;1.50;;
261;SDS011;114;48.260;10.988;2022-07-29T13:05:39;3.97;;;1.90;;
261;SDS011;114;48.260;10.988;2022-07-29T13:08:15;4.50;;;2.20;;
261;SDS011;114;48.260;10.988;2022-07-29T13:10:46;2.17;;;1.97;;
261;SDS011;114;48.260;10.988;2022-07-29T13:13:15;2.03;;;1.73;;
261;SDS011;114;48.260;10.988;2022-07-29T13:15:42;6.17;;;1.90;;
261;SDS011;114;48.260;10.988;2022-07-29T13:21:13;2.00;;;1.80;;
261;SDS011;114;48.260;10.988;2022-07-29T13:23:40;2.70;;;1.70;;
261;SDS011;114;48.260;10.988;2022-07-29T13:26:10;4.93;;;1.90;;
261;SDS011;114;48.260;10.988;2022-07-29T13:28:36;3.17;;;2.00;;
261;SDS011;114;48.260;10.988;2022-07-29T13:31:02;1.90;;;1.70;;
261;SDS011;114;48.260;10.988;2022-07-29T13:33:29;4.17;;;1.53;;
261;SDS011;114;48.260;10.988;2022-07-29T13:35:55;6.80;;;1.97;;
261;SDS011;114;48.260;10.988;2022-07-29T13:38:21;14.53;;;1.67;;
261;SDS011;114;48.260;10.988;2022-07-29T13:40:50;8.17;;;1.80;;
261;SDS011;114;48.260;10.988;2022-07-29T13:43:15;7.93;;;1.60;;
261;SDS011;114;48.260;10.988;2022-07-29T13:45:41;9.23;;;1.70;;
261;SDS011;114;48.260;10.988;2022-07-29T13:48:07;1.90;;;1.50;;
261;SDS011;114;48.260;10.988;2022-07-29T13:50:32;3.50;;;1.40;;
261;SDS011;114;48.260;10.988;2022-07-29T13:52:58;3.57;;;1.60;;
261;SDS011;114;48.260;10.988;2022-07-29T13:55:24;2.57;;;1.73;;
261;SDS011;114;48.260;10.988;2022-07-29T13:57:50;2.90;;;1.80;;
261;SDS011;114;48.260;10.988;2022-07-29T14:00:16;10.03;;;1.73;;
261;SDS011;114;48.260;10.988;2022-07-29T14:02:41;3.33;;;1.90;;
261;SDS011;114;48.260;10.988;2022-07-29T14:05:07;1.83;;;1.53;;
261;SDS011;114;48.260;10.988;2022-07-29T14:07:35;4.37;;;1.40;;
261;SDS011;114;48.260;10.988;2022-07-29T14:10:02;5.53;;;1.27;;
261;SDS011;114;48.260;10.988;2022-07-29T14:12:28;2.73;;;1.33;;
261;SDS011;114;48.260;10.988;2022-07-29T14:14:54;2.80;;;1.40;;
261;SDS011;114;48.260;10.988;2022-07-29T14:17:20;3.13;;;1.30;;
261;SDS011;114;48.260;10.988;2022-07-29T14:19:46;2.60;;;1.38;;
261;SDS011;114;48.260;10.988;2022-07-29T14:22:12;5.87;;;1.60;;
261;SDS011;114;48.260;10.988;2022-07-29T14:24:38;2.20;;;0.90;;
261;SDS011;114;48.260;10.988;2022-07-29T14:27:05;7.90;;;1.43;;
261;SDS011;114;48.260;10.988;2022-07-29T14:29:31;2.40;;;1.57;;
261;SDS011;114;48.260;10.988;2022-07-29T14:31:56;5.40;;;1.63;;
261;SDS011;114;48.260;10.988;2022-07-29T14:34:23;1.40;;;1.10;;
261;SDS011;114;48.260;10.988;2022-07-29T14:36:49;1.43;;;1.33;;
261;SDS011;114;48.260;10.988;2022-07-29T14:39:15;2.50;;;1.30;;
261;SDS011;114;48.260;10.988;2022-07-29T14:41:41;1.60;;;1.50;;
261;SDS011;114;48.260;10.988;2022-07-29T14:44:08;2.78;;;1.30;;
261;SDS011;114;48.260;10.988;2022-07-29T14:46:34;5.53;;;1.40;;
261;SDS011;114;48.260;10.988;2022-07-29T14:49:00;4.93;;;1.40;;
261;SDS011;114;48.260;10.988;2022-07-29T14:51:26;7.75;;;1.50;;
261;SDS011;114;48.260;10.988;2022-07-29T14:53:52;9.25;;;2.05;;
261;SDS011;114;48.260;10.988;2022-07-29T14:56:17;1.77;;;1.50;;
261;SDS011;114;48.260;10.988;2022-07-29T14:58:43;3.53;;;1.40;;
261;SDS011;114;48.260;10.988;2022-07-29T15:01:09;4.63;;;1.60;;
261;SDS011;114;48.260;10.988;2022-07-29T15:03:34;1.70;;;1.60;;
261;SDS011;114;48.260;10.988;2022-07-29T15:06:00;12.27;;;2.07;;
261;SDS011;114;48.260;10.988;2022-07-29T15:08:26;5.13;;;2.23;;
261;SDS011;114;48.260;10.988;2022-07-29T15:10:54;3.43;;;1.77;;
261;SDS011;114;48.260;10.988;2022-07-29T15:13:22;3.40;;;1.90;;
261;SDS011;114;48.260;10.988;2022-07-29T15:15:48;1.87;;;1.57;;
261;SDS011;114;48.260;10.988;2022-07-29T15:18:14;5.00;;;1.50;;
261;SDS011;114;48.260;10.988;2022-07-29T15:20:40;2.33;;;2.23;;
261;SDS011;114;48.260;10.988;2022-07-29T15:23:06;7.00;;;2.43;;
261;SDS011;114;48.260;10.988;2022-07-29T15:25:34;8.10;;;2.43;;
261;SDS011;114;48.260;10.988;2022-07-29T15:28:01;5.57;;;2.20;;
261;SDS011;114;48.260;10.988;2022-07-29T15:30:29;2.10;;;1.93;;
261;SDS011;114;48.260;10.988;2022-07-29T15:32:55;2.23;;;2.00;;
261;SDS011;114;48.260;10.988;2022-07-29T15:35:21;3.13;;;2.33;;
261;SDS011;114;48.260;10.988;2022-07-29T15:37:47;3.83;;;2.20;;
261;SDS011;114;48.260;10.988;2022-07-29T15:40:12;2.67;;;1.70;;
261;SDS011;114;48.260;10.988;2022-07-29T15:42:38;2.33;;;2.13;;
261;SDS011;114;48.260;10.988;2022-07-29T15:45:04;3.20;;;1.87;;
261;SDS011;114;48.260;10.988;2022-07-29T15:47:30;2.10;;;1.83;;
261;SDS011;114;48.260;10.988;2022-07-29T15:49:56;2.23;;;2.13;;
261;SDS011;114;48.260;10.988;2022-07-29T15:52:21;7.03;;;2.00;;
261;SDS011;114;48.260;10.988;2022-07-29T15:54:47;3.40;;;2.27;;
261;SDS011;114;48.260;10.988;2022-07-29T15:57:13;2.20;;;2.00;;
261;SDS011;114;48.260;10.988;2022-07-29T15:59:39;2.50;;;2.40;;
261;SDS011;114;48.260;10.988;2022-07-29T16:02:05;3.67;;;2.00;;
261;SDS011;114;48.260;10.988;2022-07-29T16:04:31;3.93;;;2.30;;
261;SDS011;114;48.260;10.988;2022-07-29T16:06:57;4.23;;;2.83;;
261;SDS011;114;48.260;10.988;2022-07-29T16:09:24;4.00;;;2.30;;
261;SDS011;114;48.260;10.988;2022-07-29T16:11:50;4.57;;;2.07;;
261;SDS011;114;48.260;10.988;2022-07-29T16:14:20;4.53;;;2.23;;
261;SDS011;114;48.260;10.988;2022-07-29T16:16:46;2.37;;;2.27;;
261;SDS011;114;48.260;10.988;2022-07-29T16:19:12;2.67;;;2.47;;
261;SDS011;114;48.260;10.988;2022-07-29T16:21:38;2.97;;;2.77;;
261;SDS011;114;48.260;10.988;2022-07-29T16:24:05;11.17;;;2.20;;
261;SDS011;114;48.260;10.988;2022-07-29T16:26:31;6.80;;;2.30;;
261;SDS011;114;48.260;10.988;2022-07-29T16:28:57;2.83;;;1.60;;
261;SDS011;114;48.260;10.988;2022-07-29T16:31:23;2.80;;;1.40;;
261;SDS011;114;48.260;10.988;2022-07-29T16:33:53;7.17;;;1.40;;
261;SDS011;114;48.260;10.988;2022-07-29T16:36:19;2.23;;;1.17;;
261;SDS011;114;48.260;10.988;2022-07-29T16:38:46;1.70;;;1.03;;